createdAt,value
2019-02-06T00:00:05.980Z,1020.71
2019-02-06T00:01:05.962Z,1020.67
2019-02-06T00:02:05.927Z,1020.64
2019-02-06T00:03:05.909Z,1020.65
2019-02-06T00:04:05.877Z,1020.62
2019-02-06T00:05:13.867Z,1020.63
2019-02-06T00:06:05.828Z,1020.61
2019-02-06T00:07:05.805Z,1020.58
2019-02-06T00:08:05.780Z,1020.57
2019-02-06T00:09:05.751Z,1020.58
2019-02-06T00:10:05.726Z,1020.55
2019-02-06T00:11:05.703Z,1020.51
2019-02-06T00:12:05.697Z,1020.54
2019-02-06T00:13:05.650Z,1020.52
2019-02-06T00:14:05.646Z,1020.52
2019-02-06T00:15:05.623Z,1020.53
2019-02-06T00:16:05.575Z,1020.57
2019-02-06T00:17:05.549Z,1020.55
2019-02-06T00:18:05.522Z,1020.54
2019-02-06T00:19:05.495Z,1020.59
2019-02-06T00:20:05.469Z,1020.60
2019-02-06T00:21:05.444Z,1020.59
2019-02-06T00:22:05.418Z,1020.59
2019-02-06T00:23:05.392Z,1020.59
2019-02-06T00:24:05.375Z,1020.58
2019-02-06T00:25:05.341Z,1020.55
2019-02-06T00:26:05.319Z,1020.55
2019-02-06T00:27:05.299Z,1020.53
2019-02-06T00:28:05.268Z,1020.51
2019-02-06T00:29:05.238Z,1020.51
2019-02-06T00:30:05.213Z,1020.48
2019-02-06T00:31:05.187Z,1020.50
2019-02-06T00:32:05.162Z,1020.46
2019-02-06T00:33:05.146Z,1020.45
2019-02-06T00:34:05.115Z,1020.43
2019-02-06T00:35:05.087Z,1020.41
2019-02-06T00:36:05.061Z,1020.39
2019-02-06T00:37:05.039Z,1020.38
2019-02-06T00:38:05.578Z,1020.37
2019-02-06T00:39:04.981Z,1020.42
2019-02-06T00:40:04.956Z,1020.44
2019-02-06T00:41:04.930Z,1020.42
2019-02-06T00:42:04.906Z,1020.44
2019-02-06T00:43:04.880Z,1020.45
2019-02-06T00:44:04.852Z,1020.43
2019-02-06T00:45:04.832Z,1020.42
2019-02-06T00:46:04.804Z,1020.42
2019-02-06T00:47:04.777Z,1020.45
2019-02-06T00:48:04.751Z,1020.44
2019-02-06T00:49:04.728Z,1020.44
2019-02-06T00:50:04.700Z,1020.40
2019-02-06T00:51:04.716Z,1020.39
2019-02-06T00:52:04.653Z,1020.37
2019-02-06T00:53:04.623Z,1020.37
2019-02-06T00:54:04.597Z,1020.32
2019-02-06T00:55:04.581Z,1020.30
2019-02-06T00:56:04.559Z,1020.28
2019-02-06T00:57:04.522Z,1020.30
2019-02-06T00:58:04.502Z,1020.33
2019-02-06T00:59:04.469Z,1020.31
2019-02-06T01:00:04.443Z,1020.32
2019-02-06T01:01:04.419Z,1020.30
2019-02-06T01:02:04.391Z,1020.31
2019-02-06T01:03:04.368Z,1020.34
2019-02-06T01:04:04.342Z,1020.29
2019-02-06T01:05:04.317Z,1020.31
2019-02-06T01:06:04.294Z,1020.30
2019-02-06T01:07:04.266Z,1020.27
2019-02-06T01:08:04.238Z,1020.22
2019-02-06T01:09:04.212Z,1020.23
2019-02-06T01:10:04.188Z,1020.22
2019-02-06T01:11:04.165Z,1020.19
2019-02-06T01:12:04.136Z,1020.16
2019-02-06T01:13:04.122Z,1020.12
2019-02-06T01:14:04.086Z,1020.13
2019-02-06T01:15:04.061Z,1020.11
2019-02-06T01:16:04.043Z,1020.12
2019-02-06T01:17:04.021Z,1020.11
2019-02-06T01:18:03.983Z,1020.11
2019-02-06T01:19:03.957Z,1020.06
2019-02-06T01:20:03.935Z,1020.05
2019-02-06T01:21:03.906Z,1020.10
2019-02-06T01:22:03.887Z,1020.08
2019-02-06T01:23:03.861Z,1020.03
2019-02-06T01:24:03.829Z,1020.03
2019-02-06T01:25:03.804Z,1020.01
2019-02-06T01:26:03.779Z,1020.03
2019-02-06T01:27:03.833Z,1020.03
2019-02-06T01:28:03.726Z,1020.04
2019-02-06T01:29:03.703Z,1020.02
2019-02-06T01:30:03.674Z,1020.05
2019-02-06T01:31:03.650Z,1020.07
2019-02-06T01:32:03.621Z,1020.11
2019-02-06T01:33:03.598Z,1020.08
2019-02-06T01:34:03.569Z,1020.11
2019-02-06T01:35:03.648Z,1020.08
2019-02-06T01:36:03.522Z,1020.08
2019-02-06T01:37:03.494Z,1020.04
2019-02-06T01:38:03.472Z,1020.06
2019-02-06T01:39:03.444Z,1020.03
2019-02-06T01:40:03.416Z,1020.01
2019-02-06T01:41:03.400Z,1019.97
2019-02-06T01:42:03.369Z,1019.97
2019-02-06T01:43:03.341Z,1019.99
2019-02-06T01:44:03.314Z,1019.97
2019-02-06T01:45:03.288Z,1019.98
2019-02-06T01:46:03.263Z,1019.97
2019-02-06T01:47:03.240Z,1019.94
2019-02-06T01:48:03.214Z,1019.97
2019-02-06T01:49:03.184Z,1019.95
2019-02-06T01:50:03.162Z,1019.97
2019-02-06T01:51:03.133Z,1019.98
2019-02-06T01:52:03.108Z,1020.02
2019-02-06T01:53:03.082Z,1019.99
2019-02-06T01:54:03.056Z,1019.97
2019-02-06T01:55:03.040Z,1019.99
2019-02-06T01:56:03.008Z,1019.97
2019-02-06T01:57:02.979Z,1020.03
2019-02-06T01:58:02.953Z,1020.02
2019-02-06T01:59:02.929Z,1020.02
2019-02-06T02:00:02.901Z,1019.97
2019-02-06T02:01:02.883Z,1019.93
2019-02-06T02:02:02.851Z,1019.90
2019-02-06T02:03:02.827Z,1019.86
2019-02-06T02:04:02.804Z,1019.84
2019-02-06T02:05:02.773Z,1019.84
2019-02-06T02:06:02.922Z,1019.85
2019-02-06T02:07:02.738Z,1019.81
2019-02-06T02:08:02.694Z,1019.82
2019-02-06T02:09:02.669Z,1019.83
2019-02-06T02:10:02.644Z,1019.83
2019-02-06T02:11:02.624Z,1019.80
2019-02-06T02:12:02.591Z,1019.83
2019-02-06T02:13:02.566Z,1019.81
2019-02-06T02:14:02.542Z,1019.77
2019-02-06T02:15:02.516Z,1019.76
2019-02-06T02:16:02.489Z,1019.70
2019-02-06T02:17:02.468Z,1019.70
2019-02-06T02:18:02.439Z,1019.67
2019-02-06T02:19:02.410Z,1019.69
2019-02-06T02:20:02.383Z,1019.67
2019-02-06T02:21:02.357Z,1019.70
2019-02-06T02:22:02.334Z,1019.67
2019-02-06T02:23:02.312Z,1019.67
2019-02-06T02:24:02.281Z,1019.65
2019-02-06T02:25:02.258Z,1019.67
2019-02-06T02:26:02.228Z,1019.64
2019-02-06T02:27:02.205Z,1019.66
2019-02-06T02:28:02.176Z,1019.68
2019-02-06T02:29:02.150Z,1019.67
2019-02-06T02:30:02.133Z,1019.66
2019-02-06T02:31:02.109Z,1019.67
2019-02-06T02:32:02.075Z,1019.64
2019-02-06T02:33:02.049Z,1019.59
2019-02-06T02:34:02.025Z,1019.64
2019-02-06T02:35:02.002Z,1019.62
2019-02-06T02:36:14.463Z,1019.62
2019-02-06T02:37:01.943Z,1019.57
2019-02-06T02:38:01.919Z,1019.54
2019-02-06T02:39:01.893Z,1019.57
2019-02-06T02:40:01.869Z,1019.56
2019-02-06T02:41:01.843Z,1019.53
2019-02-06T02:42:01.816Z,1019.54
2019-02-06T02:43:01.792Z,1019.51
2019-02-06T02:44:01.768Z,1019.52
2019-02-06T02:45:01.740Z,1019.49
2019-02-06T02:46:01.716Z,1019.40
2019-02-06T02:47:01.687Z,1019.44
2019-02-06T02:48:01.662Z,1019.41
2019-02-06T02:49:01.635Z,1019.37
2019-02-06T02:50:01.645Z,1019.34
2019-02-06T02:51:01.586Z,1019.32
2019-02-06T02:52:01.564Z,1019.31
2019-02-06T02:53:01.534Z,1019.29
2019-02-06T02:54:01.508Z,1019.25
2019-02-06T02:55:01.480Z,1019.20
2019-02-06T02:56:01.455Z,1019.13
2019-02-06T02:57:01.433Z,1019.12
2019-02-06T02:58:01.405Z,1019.05
2019-02-06T02:59:01.387Z,1019.06
2019-02-06T03:00:01.366Z,1019.05
2019-02-06T03:01:01.326Z,1019.04
2019-02-06T03:02:01.300Z,1019.05
2019-02-06T03:03:01.274Z,1019.09
2019-02-06T03:04:01.251Z,1019.09
2019-02-06T03:05:01.218Z,1019.10
2019-02-06T03:06:01.194Z,1019.05
2019-02-06T03:07:01.168Z,1019.03
2019-02-06T03:08:01.152Z,1019.06
2019-02-06T03:09:01.122Z,1019.04
2019-02-06T03:10:01.095Z,1018.99
2019-02-06T03:11:01.066Z,1018.98
2019-02-06T03:12:01.041Z,1018.98
2019-02-06T03:13:01.022Z,1018.96
2019-02-06T03:14:00.989Z,1018.94
2019-02-06T03:15:01.201Z,1018.89
2019-02-06T03:16:00.936Z,1018.89
2019-02-06T03:17:03.197Z,1018.87
2019-02-06T03:18:00.893Z,1018.87
2019-02-06T03:19:00.863Z,1018.82
2019-02-06T03:20:00.838Z,1018.85
2019-02-06T03:21:00.805Z,1018.80
2019-02-06T03:22:00.785Z,1018.79
2019-02-06T03:23:00.755Z,1018.80
2019-02-06T03:24:00.742Z,1018.79
2019-02-06T03:25:00.706Z,1018.74
2019-02-06T03:26:00.679Z,1018.72
2019-02-06T03:27:00.652Z,1018.74
2019-02-06T03:28:00.625Z,1018.73
2019-02-06T03:29:00.598Z,1018.68
2019-02-06T03:30:00.573Z,1018.66
2019-02-06T03:31:00.555Z,1018.63
2019-02-06T03:32:00.533Z,1018.58
2019-02-06T03:33:00.504Z,1018.56
2019-02-06T03:34:00.471Z,1018.51
2019-02-06T03:35:00.459Z,1018.52
2019-02-06T03:36:00.419Z,1018.50
2019-02-06T03:37:00.393Z,1018.42
2019-02-06T03:38:00.367Z,1018.37
2019-02-06T03:39:00.342Z,1018.37
2019-02-06T03:40:00.494Z,1018.38
2019-02-06T03:41:00.293Z,1018.37
2019-02-06T03:42:00.326Z,1018.32
2019-02-06T03:43:00.240Z,1018.33
2019-02-06T03:44:00.212Z,1018.30
2019-02-06T03:45:00.285Z,1018.29
2019-02-06T03:46:00.170Z,1018.24
2019-02-06T03:47:00.133Z,1018.21
2019-02-06T03:48:00.131Z,1018.16
2019-02-06T03:49:00.082Z,1018.14
2019-02-06T03:50:00.127Z,1018.16
2019-02-06T03:51:00.034Z,1018.13
2019-02-06T03:52:00.007Z,1018.13
2019-02-06T03:52:59.982Z,1018.10
2019-02-06T03:53:59.952Z,1018.12
2019-02-06T03:54:59.927Z,1018.05
2019-02-06T03:55:59.902Z,1018.02
2019-02-06T03:56:59.876Z,1018.04
2019-02-06T03:57:59.850Z,1018.09
2019-02-06T03:58:59.822Z,1018.06
2019-02-06T03:59:59.797Z,1018.04
2019-02-06T04:00:59.783Z,1018.03
2019-02-06T04:01:59.747Z,1018.06
2019-02-06T04:02:59.721Z,1018.06
2019-02-06T04:03:59.694Z,1018.05
2019-02-06T04:04:59.668Z,1018.07
2019-02-06T04:05:59.641Z,1018.14
2019-02-06T04:07:01.009Z,1018.11
2019-02-06T04:07:59.589Z,1018.06
2019-02-06T04:08:59.562Z,1018.04
2019-02-06T04:09:59.538Z,1018.05
2019-02-06T04:10:59.513Z,1018.08
2019-02-06T04:11:59.484Z,1018.03
2019-02-06T04:12:59.458Z,1018.01
2019-02-06T04:13:59.442Z,1018.01
2019-02-06T04:14:59.408Z,1017.99
2019-02-06T04:15:59.381Z,1017.99
2019-02-06T04:16:59.354Z,1017.98
2019-02-06T04:17:59.340Z,1018.06
2019-02-06T04:18:59.304Z,1018.03
2019-02-06T04:19:59.278Z,1017.98
2019-02-06T04:20:59.262Z,1017.99
2019-02-06T04:21:59.230Z,1017.95
2019-02-06T04:22:59.206Z,1017.87
2019-02-06T04:23:59.174Z,1017.89
2019-02-06T04:24:59.148Z,1017.87
2019-02-06T04:25:59.123Z,1017.87
2019-02-06T04:26:59.103Z,1017.89
2019-02-06T04:27:59.075Z,1017.90
2019-02-06T04:28:59.045Z,1017.90
2019-02-06T04:29:59.019Z,1017.93
2019-02-06T04:30:58.995Z,1017.93
2019-02-06T04:31:58.966Z,1017.99
2019-02-06T04:32:58.940Z,1018.03
2019-02-06T04:33:58.918Z,1018.03
2019-02-06T04:34:58.891Z,1017.99
2019-02-06T04:35:58.864Z,1018.02
2019-02-06T04:37:06.731Z,1018.02
2019-02-06T04:37:58.813Z,1018.00
2019-02-06T04:38:58.793Z,1018.00
2019-02-06T04:39:58.757Z,1017.93
2019-02-06T04:40:58.734Z,1017.84
2019-02-06T04:41:58.712Z,1017.89
2019-02-06T04:42:58.746Z,1017.79
2019-02-06T04:43:58.662Z,1017.75
2019-02-06T04:44:58.630Z,1017.78
2019-02-06T04:45:58.603Z,1017.78
2019-02-06T04:46:58.579Z,1017.78
2019-02-06T04:47:58.552Z,1017.74
2019-02-06T04:48:58.528Z,1017.78
2019-02-06T04:49:58.503Z,1017.77
2019-02-06T04:50:58.473Z,1017.78
2019-02-06T04:51:58.449Z,1017.79
2019-02-06T04:52:58.425Z,1017.79
2019-02-06T04:53:58.396Z,1017.79
2019-02-06T04:54:58.376Z,1017.79
2019-02-06T04:55:58.342Z,1017.78
2019-02-06T04:56:58.319Z,1017.78
2019-02-06T04:57:58.292Z,1017.73
2019-02-06T04:58:58.268Z,1017.76
2019-02-06T04:59:58.241Z,1017.72
2019-02-06T05:00:58.217Z,1017.69
2019-02-06T05:01:58.195Z,1017.69
2019-02-06T05:02:58.168Z,1017.69
2019-02-06T05:03:58.138Z,1017.64
2019-02-06T05:04:58.120Z,1017.67
2019-02-06T05:05:58.091Z,1017.67
2019-02-06T05:06:58.061Z,1017.67
2019-02-06T05:07:58.033Z,1017.65
2019-02-06T05:08:58.016Z,1017.65
2019-02-06T05:09:57.990Z,1017.65
2019-02-06T05:10:57.957Z,1017.62
2019-02-06T05:11:57.933Z,1017.62
2019-02-06T05:12:57.904Z,1017.65
2019-02-06T05:13:57.880Z,1017.63
2019-02-06T05:14:57.853Z,1017.63
2019-02-06T05:15:57.824Z,1017.61
2019-02-06T05:16:57.806Z,1017.61
2019-02-06T05:17:57.773Z,1017.61
2019-02-06T05:18:57.749Z,1017.64
2019-02-06T05:19:57.721Z,1017.60
2019-02-06T05:20:57.698Z,1017.60
2019-02-06T05:21:57.670Z,1017.57
2019-02-06T05:22:57.644Z,1017.57
2019-02-06T05:23:57.617Z,1017.62
2019-02-06T05:24:57.602Z,1017.59
2019-02-06T05:25:57.566Z,1017.59
2019-02-06T05:26:57.539Z,1017.56
2019-02-06T05:27:57.512Z,1017.58
2019-02-06T05:28:57.486Z,1017.59
2019-02-06T05:29:57.475Z,1017.57
2019-02-06T05:30:57.440Z,1017.57
2019-02-06T05:31:57.413Z,1017.56
2019-02-06T05:32:57.490Z,1017.55
2019-02-06T05:33:57.361Z,1017.50
2019-02-06T05:34:57.332Z,1017.50
2019-02-06T05:35:57.325Z,1017.46
2019-02-06T05:36:57.282Z,1017.46
2019-02-06T05:37:57.257Z,1017.47
2019-02-06T05:38:57.231Z,1017.40
2019-02-06T05:39:57.204Z,1017.41
2019-02-06T05:40:57.176Z,1017.39
2019-02-06T05:41:57.153Z,1017.37
2019-02-06T05:42:57.124Z,1017.39
2019-02-06T05:43:57.108Z,1017.39
2019-02-06T05:44:57.078Z,1017.38
2019-02-06T05:45:57.048Z,1017.41
2019-02-06T05:46:57.024Z,1017.37
2019-02-06T05:47:56.994Z,1017.28
2019-02-06T05:48:56.968Z,1017.33
2019-02-06T05:49:56.945Z,1017.33
2019-02-06T05:50:56.937Z,1017.35
2019-02-06T05:51:56.892Z,1017.32
2019-02-06T05:52:56.866Z,1017.31
2019-02-06T05:53:56.839Z,1017.27
2019-02-06T05:54:56.831Z,1017.25
2019-02-06T05:55:56.804Z,1017.26
2019-02-06T05:56:56.776Z,1017.23
2019-02-06T05:57:56.739Z,1017.24
2019-02-06T05:58:56.713Z,1017.17
2019-02-06T05:59:56.685Z,1017.14
2019-02-06T06:00:56.663Z,1017.15
2019-02-06T06:01:56.634Z,1017.11
2019-02-06T06:02:56.608Z,1017.08
2019-02-06T06:03:56.582Z,1017.11
2019-02-06T06:04:56.562Z,1017.07
2019-02-06T06:05:56.535Z,1017.11
2019-02-06T06:06:56.505Z,1017.10
2019-02-06T06:07:56.477Z,1017.12
2019-02-06T06:08:56.450Z,1017.11
2019-02-06T06:09:56.426Z,1017.11
2019-02-06T06:10:56.397Z,1017.14
2019-02-06T06:11:56.372Z,1017.15
2019-02-06T06:12:56.348Z,1017.10
2019-02-06T06:13:56.341Z,1017.10
2019-02-06T06:14:56.303Z,1017.09
2019-02-06T06:15:56.279Z,1017.09
2019-02-06T06:16:56.244Z,1017.10
2019-02-06T06:17:56.218Z,1017.14
2019-02-06T06:18:56.191Z,1017.11
2019-02-06T06:19:56.188Z,1017.17
2019-02-06T06:20:56.144Z,1017.12
2019-02-06T06:21:56.113Z,1017.11
2019-02-06T06:22:56.086Z,1017.10
2019-02-06T06:23:56.059Z,1017.08
2019-02-06T06:24:56.035Z,1017.10
2019-02-06T06:25:56.044Z,1017.05
2019-02-06T06:26:55.990Z,1017.08
2019-02-06T06:27:55.956Z,1017.08
2019-02-06T06:28:55.934Z,1017.06
2019-02-06T06:29:55.905Z,1017.02
2019-02-06T06:30:55.885Z,1017.02
2019-02-06T06:31:55.853Z,1016.97
2019-02-06T06:32:55.827Z,1016.97
2019-02-06T06:33:55.801Z,1016.99
2019-02-06T06:34:55.781Z,1016.96
2019-02-06T06:35:55.748Z,1016.95
2019-02-06T06:36:56.884Z,1016.89
2019-02-06T06:37:59.790Z,1016.95
2019-02-06T06:38:55.670Z,1016.94
2019-02-06T06:39:55.643Z,1016.91
2019-02-06T06:40:55.618Z,1016.91
2019-02-06T06:41:55.592Z,1016.92
2019-02-06T06:42:55.572Z,1016.97
2019-02-06T06:43:55.543Z,1017.00
2019-02-06T06:44:55.517Z,1017.02
2019-02-06T06:45:55.488Z,1017.00
2019-02-06T06:46:55.467Z,1017.06
2019-02-06T06:47:55.446Z,1017.07
2019-02-06T06:48:55.408Z,1017.09
2019-02-06T06:49:55.385Z,1017.08
2019-02-06T06:50:55.362Z,1017.08
2019-02-06T06:51:55.334Z,1017.11
2019-02-06T06:52:55.307Z,1017.13
2019-02-06T06:53:55.283Z,1017.13
2019-02-06T06:54:55.269Z,1017.14
2019-02-06T06:55:55.230Z,1017.13
2019-02-06T06:56:55.201Z,1017.11
2019-02-06T06:57:55.179Z,1017.04
2019-02-06T06:58:55.155Z,1017.04
2019-02-06T06:59:55.711Z,1017.07
2019-02-06T07:00:55.100Z,1017.05
2019-02-06T07:01:55.075Z,1017.03
2019-02-06T07:02:55.047Z,1016.98
2019-02-06T07:03:55.036Z,1016.97
2019-02-06T07:04:54.996Z,1017.01
2019-02-06T07:05:54.971Z,1016.96
2019-02-06T07:06:54.946Z,1017.01
2019-02-06T07:07:54.919Z,1016.99
2019-02-06T07:08:54.893Z,1017.04
2019-02-06T07:09:54.866Z,1017.01
2019-02-06T07:10:54.841Z,1017.01
2019-02-06T07:11:54.822Z,1016.96
2019-02-06T07:12:54.788Z,1016.95
2019-02-06T07:13:54.762Z,1017.02
2019-02-06T07:14:54.738Z,1017.01
2019-02-06T07:15:54.711Z,1017.01
2019-02-06T07:16:54.689Z,1017.00
2019-02-06T07:17:54.661Z,1017.01
2019-02-06T07:18:54.634Z,1016.98
2019-02-06T07:19:54.608Z,1017.00
2019-02-06T07:20:54.590Z,1016.96
2019-02-06T07:21:54.557Z,1016.94
2019-02-06T07:22:54.535Z,1016.94
2019-02-06T07:23:54.505Z,1016.93
2019-02-06T07:24:54.480Z,1016.99
2019-02-06T07:25:54.458Z,1017.00
2019-02-06T07:26:54.429Z,1016.98
2019-02-06T07:27:54.402Z,1016.96
2019-02-06T07:28:54.377Z,1016.98
2019-02-06T07:29:54.351Z,1016.91
2019-02-06T07:30:54.327Z,1016.94
2019-02-06T07:31:54.300Z,1016.95
2019-02-06T07:32:54.274Z,1016.96
2019-02-06T07:33:54.251Z,1016.94
2019-02-06T07:34:54.223Z,1016.93
2019-02-06T07:35:54.198Z,1016.93
2019-02-06T07:36:54.181Z,1016.94
2019-02-06T07:37:54.149Z,1016.97
2019-02-06T07:38:54.120Z,1017.01
2019-02-06T07:39:54.092Z,1017.02
2019-02-06T07:40:54.065Z,1016.99
2019-02-06T07:41:54.040Z,1017.03
2019-02-06T07:42:54.014Z,1017.00
2019-02-06T07:43:53.996Z,1016.96
2019-02-06T07:44:53.965Z,1016.93
2019-02-06T07:45:53.938Z,1016.94
2019-02-06T07:46:54.037Z,1016.92
2019-02-06T07:47:53.887Z,1016.91
2019-02-06T07:48:53.860Z,1016.82
2019-02-06T07:49:53.835Z,1016.84
2019-02-06T07:50:53.809Z,1016.85
2019-02-06T07:51:53.783Z,1016.83
2019-02-06T07:52:53.764Z,1016.80
2019-02-06T07:53:53.732Z,1016.78
2019-02-06T07:54:53.706Z,1016.76
2019-02-06T07:55:53.681Z,1016.75
2019-02-06T07:56:53.665Z,1016.74
2019-02-06T07:57:53.629Z,1016.72
2019-02-06T07:58:53.602Z,1016.76
2019-02-06T07:59:53.576Z,1016.74
2019-02-06T08:00:53.574Z,1016.77
2019-02-06T08:01:53.527Z,1016.73
2019-02-06T08:02:53.505Z,1016.74
2019-02-06T08:03:53.472Z,1016.73
2019-02-06T08:04:53.450Z,1016.76
2019-02-06T08:05:53.422Z,1016.70
2019-02-06T08:06:53.395Z,1016.73
2019-02-06T08:07:53.370Z,1016.78
2019-02-06T08:08:53.343Z,1016.72
2019-02-06T08:09:53.319Z,1016.75
2019-02-06T08:10:53.293Z,1016.77
2019-02-06T08:11:53.265Z,1016.74
2019-02-06T08:12:53.240Z,1016.74
2019-02-06T08:13:53.220Z,1016.71
2019-02-06T08:14:53.190Z,1016.69
2019-02-06T08:15:53.164Z,1016.69
2019-02-06T08:16:53.144Z,1016.74
2019-02-06T08:17:53.110Z,1016.67
2019-02-06T08:18:53.089Z,1016.70
2019-02-06T08:19:53.060Z,1016.65
2019-02-06T08:20:53.041Z,1016.65
2019-02-06T08:21:53.009Z,1016.68
2019-02-06T08:22:52.986Z,1016.66
2019-02-06T08:23:52.960Z,1016.68
2019-02-06T08:24:52.932Z,1016.67
2019-02-06T08:25:52.914Z,1016.65
2019-02-06T08:26:52.881Z,1016.64
2019-02-06T08:27:52.860Z,1016.64
2019-02-06T08:28:52.831Z,1016.67
2019-02-06T08:29:52.803Z,1016.65
2019-02-06T08:30:52.782Z,1016.70
2019-02-06T08:31:52.751Z,1016.76
2019-02-06T08:32:52.723Z,1016.74
2019-02-06T08:33:52.713Z,1016.79
2019-02-06T08:34:52.673Z,1016.72
2019-02-06T08:35:52.655Z,1016.78
2019-02-06T08:36:52.626Z,1016.80
2019-02-06T08:37:52.619Z,1016.83
2019-02-06T08:38:55.450Z,1016.84
2019-02-06T08:39:52.554Z,1016.90
2019-02-06T08:40:52.518Z,1016.94
2019-02-06T08:41:52.496Z,1016.93
2019-02-06T08:42:52.480Z,1016.96
2019-02-06T08:43:52.442Z,1016.97
2019-02-06T08:44:52.422Z,1016.98
2019-02-06T08:45:52.391Z,1017.02
2019-02-06T08:46:52.365Z,1017.00
2019-02-06T08:47:52.339Z,1017.00
2019-02-06T08:48:52.314Z,1017.02
2019-02-06T08:49:52.293Z,1017.02
2019-02-06T08:50:52.274Z,1017.02
2019-02-06T08:51:52.236Z,1016.99
2019-02-06T08:52:52.211Z,1017.04
2019-02-06T08:53:52.187Z,1016.98
2019-02-06T08:54:52.161Z,1016.94
2019-02-06T08:55:52.136Z,1017.02
2019-02-06T08:56:52.116Z,1016.99
2019-02-06T08:57:52.094Z,1017.00
2019-02-06T08:58:52.067Z,1016.98
2019-02-06T08:59:52.038Z,1016.99
2019-02-06T09:00:52.017Z,1016.97
2019-02-06T09:01:51.983Z,1016.96
2019-02-06T09:02:51.959Z,1016.95
2019-02-06T09:03:51.942Z,1016.98
2019-02-06T09:04:55.801Z,1016.98
2019-02-06T09:05:51.884Z,1016.98
2019-02-06T09:06:51.859Z,1016.96
2019-02-06T09:07:51.835Z,1016.94
2019-02-06T09:08:59.341Z,1016.99
2019-02-06T09:09:51.782Z,1016.98
2019-02-06T09:10:51.756Z,1017.00
2019-02-06T09:11:51.747Z,1016.95
2019-02-06T09:12:51.713Z,1017.02
2019-02-06T09:13:51.680Z,1017.02
2019-02-06T09:14:51.653Z,1017.03
2019-02-06T09:15:51.626Z,1017.01
2019-02-06T09:16:51.601Z,1017.02
2019-02-06T09:17:51.576Z,1017.02
2019-02-06T09:18:51.559Z,1016.99
2019-02-06T09:19:51.528Z,1017.03
2019-02-06T09:20:52.831Z,1017.01
2019-02-06T09:21:51.474Z,1017.07
2019-02-06T09:22:51.468Z,1017.01
2019-02-06T09:23:51.428Z,1017.02
2019-02-06T09:24:51.400Z,1017.04
2019-02-06T09:25:51.377Z,1017.05
2019-02-06T09:26:51.352Z,1017.01
2019-02-06T09:27:51.330Z,1017.00
2019-02-06T09:28:51.298Z,1017.05
2019-02-06T09:29:51.273Z,1017.02
2019-02-06T09:30:51.249Z,1017.00
2019-02-06T09:31:51.223Z,1017.01
2019-02-06T09:32:51.209Z,1016.98
2019-02-06T09:33:51.172Z,1016.99
2019-02-06T09:34:51.151Z,1017.03
2019-02-06T09:35:51.142Z,1017.01
2019-02-06T09:36:51.099Z,1016.96
2019-02-06T09:37:51.073Z,1016.94
2019-02-06T09:38:51.173Z,1016.89
2019-02-06T09:39:51.030Z,1016.92
2019-02-06T09:40:50.998Z,1016.91
2019-02-06T09:41:50.971Z,1016.93
2019-02-06T09:42:50.947Z,1016.96
2019-02-06T09:43:50.928Z,1016.96
2019-02-06T09:44:50.897Z,1016.96
2019-02-06T09:45:50.872Z,1016.98
2019-02-06T09:46:50.856Z,1017.00
2019-02-06T09:47:50.821Z,1016.98
2019-02-06T09:48:50.795Z,1017.01
2019-02-06T09:49:50.771Z,1016.94
2019-02-06T09:50:50.751Z,1016.95
2019-02-06T09:51:50.721Z,1016.96
2019-02-06T09:52:50.698Z,1016.98
2019-02-06T09:53:50.670Z,1016.94
2019-02-06T09:54:50.646Z,1016.95
2019-02-06T09:55:53.250Z,1016.96
2019-02-06T09:56:50.848Z,1016.95
2019-02-06T09:57:50.571Z,1016.93
2019-02-06T09:58:50.545Z,1016.96
2019-02-06T09:59:50.521Z,1016.94
2019-02-06T10:00:50.502Z,1016.92
2019-02-06T10:01:50.469Z,1016.91
2019-02-06T10:02:50.446Z,1016.94
2019-02-06T10:03:50.420Z,1016.94
2019-02-06T10:04:50.394Z,1016.90
2019-02-06T10:05:50.370Z,1016.90
2019-02-06T10:06:50.349Z,1016.92
2019-02-06T10:07:50.325Z,1016.91
2019-02-06T10:08:50.296Z,1016.89
2019-02-06T10:09:50.277Z,1016.90
2019-02-06T10:10:50.261Z,1016.85
2019-02-06T10:11:50.219Z,1016.90
2019-02-06T10:12:50.199Z,1016.87
2019-02-06T10:13:50.171Z,1016.85
2019-02-06T10:14:50.147Z,1016.89
2019-02-06T10:15:50.120Z,1016.88
2019-02-06T10:16:50.099Z,1016.86
2019-02-06T10:17:50.075Z,1016.89
2019-02-06T10:18:50.050Z,1016.88
2019-02-06T10:19:50.023Z,1016.86
2019-02-06T10:20:49.996Z,1016.88
2019-02-06T10:21:53.426Z,1016.87
2019-02-06T10:22:49.956Z,1016.91
2019-02-06T10:23:49.920Z,1016.90
2019-02-06T10:24:49.916Z,1016.91
2019-02-06T10:25:49.886Z,1016.94
2019-02-06T10:26:49.848Z,1016.89
2019-02-06T10:27:49.836Z,1016.91
2019-02-06T10:28:49.799Z,1016.92
2019-02-06T10:29:49.775Z,1016.86
2019-02-06T10:30:49.750Z,1016.89
2019-02-06T10:31:49.746Z,1016.92
2019-02-06T10:32:49.704Z,1016.93
2019-02-06T10:33:49.682Z,1016.93
2019-02-06T10:34:49.651Z,1016.87
2019-02-06T10:35:52.027Z,1016.88
2019-02-06T10:36:49.607Z,1016.88
2019-02-06T10:37:49.578Z,1016.88
2019-02-06T10:38:49.550Z,1016.85
2019-02-06T10:39:49.528Z,1016.83
2019-02-06T10:40:49.500Z,1016.80
2019-02-06T10:41:49.483Z,1016.81
2019-02-06T10:42:49.457Z,1016.79
2019-02-06T10:43:49.426Z,1016.77
2019-02-06T10:44:49.417Z,1016.79
2019-02-06T10:45:49.377Z,1016.78
2019-02-06T10:46:49.363Z,1016.81
2019-02-06T10:47:49.324Z,1016.78
2019-02-06T10:48:49.304Z,1016.81
2019-02-06T10:49:49.289Z,1016.79
2019-02-06T10:50:49.251Z,1016.79
2019-02-06T10:51:49.229Z,1016.81
2019-02-06T10:52:49.206Z,1016.82
2019-02-06T10:53:49.177Z,1016.81
2019-02-06T10:54:49.151Z,1016.79
2019-02-06T10:55:49.126Z,1016.81
2019-02-06T10:56:49.107Z,1016.80
2019-02-06T10:57:49.079Z,1016.76
2019-02-06T10:58:49.064Z,1016.77
2019-02-06T10:59:49.036Z,1016.73
2019-02-06T11:00:49.018Z,1016.74
2019-02-06T11:01:48.979Z,1016.75
2019-02-06T11:02:48.967Z,1016.71
2019-02-06T11:03:48.933Z,1016.73
2019-02-06T11:04:48.904Z,1016.71
2019-02-06T11:05:48.879Z,1016.71
2019-02-06T11:06:48.861Z,1016.67
2019-02-06T11:07:48.833Z,1016.67
2019-02-06T11:08:48.806Z,1016.66
2019-02-06T11:09:48.781Z,1016.63
2019-02-06T11:10:48.758Z,1016.64
2019-02-06T11:11:48.737Z,1016.61
2019-02-06T11:12:48.709Z,1016.59
2019-02-06T11:13:49.790Z,1016.60
2019-02-06T11:14:48.662Z,1016.56
2019-02-06T11:15:48.644Z,1016.60
2019-02-06T11:16:48.606Z,1016.57
2019-02-06T11:17:48.583Z,1016.56
2019-02-06T11:18:48.558Z,1016.59
2019-02-06T11:19:48.534Z,1016.57
2019-02-06T11:20:48.510Z,1016.53
2019-02-06T11:21:48.484Z,1016.52
2019-02-06T11:22:48.465Z,1016.50
2019-02-06T11:23:48.435Z,1016.46
2019-02-06T11:24:48.416Z,1016.50
2019-02-06T11:25:48.388Z,1016.40
2019-02-06T11:26:48.362Z,1016.40
2019-02-06T11:27:48.447Z,1016.42
2019-02-06T11:28:48.314Z,1016.39
2019-02-06T11:29:48.645Z,1016.44
2019-02-06T11:30:48.270Z,1016.44
2019-02-06T11:31:48.237Z,1016.43
2019-02-06T11:32:48.219Z,1016.45
2019-02-06T11:33:48.188Z,1016.44
2019-02-06T11:34:48.179Z,1016.43
2019-02-06T11:35:48.138Z,1016.45
2019-02-06T11:36:48.117Z,1016.43
2019-02-06T11:37:48.133Z,1016.38
2019-02-06T11:38:48.065Z,1016.40
2019-02-06T11:39:57.478Z,1016.36
2019-02-06T11:40:48.027Z,1016.37
2019-02-06T11:41:47.991Z,1016.38
2019-02-06T11:42:47.969Z,1016.29
2019-02-06T11:43:47.944Z,1016.31
2019-02-06T11:44:47.925Z,1016.32
2019-02-06T11:45:47.897Z,1016.29
2019-02-06T11:46:47.869Z,1016.24
2019-02-06T11:47:47.843Z,1016.28
2019-02-06T11:48:47.822Z,1016.30
2019-02-06T11:49:47.796Z,1016.23
2019-02-06T11:50:47.773Z,1016.26
2019-02-06T11:51:47.745Z,1016.25
2019-02-06T11:52:47.729Z,1016.21
2019-02-06T11:53:47.699Z,1016.23
2019-02-06T11:54:47.687Z,1016.22
2019-02-06T11:55:47.649Z,1016.19
2019-02-06T11:56:47.636Z,1016.17
2019-02-06T11:57:47.602Z,1016.19
2019-02-06T11:58:47.576Z,1016.20
2019-02-06T11:59:47.568Z,1016.21
2019-02-06T12:00:48.549Z,1016.16
2019-02-06T12:01:47.510Z,1016.12
2019-02-06T12:02:47.479Z,1016.11
2019-02-06T12:03:47.452Z,1016.13
2019-02-06T12:04:47.430Z,1016.11